Burgos, España

6:05 AM CEST en Julio 30, 2015 (GMT +0200)
Foronda | | Change Station
CLOSE
Current Station
Aeropuerto
Location: Vitoria,
Altura: 1673 ft
Estaciones meteorológicas cercanas

Alt 1673 ft 42.88 °N, 2.72 °W | Updated 35 minutes ago

Light Rain
Lluvia débil
55 ° F
Sensación térmica 55 ° F
N
6
Viento Variable Viento desde NNE

Hoy
Alta -- | Baja -- ° F
--% Posibilidad de precipitaciones
Ayer
Alta -- | Baja -- ° F
Precip. -- pul
7:04 AM 9:36 PM
Gibosa creciente, 98% visible
Presión 30.06 pul
Visibilidad 5.0 Millas
Nubes Nubes dispersas 900 ft
Nubes dispersas 2000 ft
Punto de rocío 54 ° F
Humedad 94%
Precipitaciones 0.00 pul
Espesor de la nieve No disponible.
UV 0 de una escala de 12
Polen No disponible.
Calidad del aire No disponible.
Flu Activity No disponible.
METAR LEVT 300330Z 02005KT 8000 -RA SCT009 SCT020 13/12 Q1018

More Conditions Fewer Conditions

Presión 30.06 pul
Visibilidad 5.0 Millas
Nubes Nubes dispersas 900 ft
Nubes dispersas 2000 ft
Punto de rocío 54 ° F
Humedad 94%
Precipitaciones 0.00 pul
Espesor de la nieve No disponible.
UV 0 de una escala de 12
Polen No disponible.
Calidad del aire No disponible.
Flu Activity No disponible.
METAR LEVT 300330Z 02005KT 8000 -RA SCT009 SCT020 13/12 Q1018

More Conditions Fewer Conditions

10-Day Weather Forecast

×

Almanac

Astronomía

Jul. 30, 2015 Salida Puesta
Hora real
Crepúsculo civil
Crepúsculo náutico
Crepúsculo astronómico
Luna
Horas de luz
Horas de luz
Tomorrow will be .
, % of the Moon is Illuminated

Extremos de hoy

Máximos del país Bajas del país

Community

WunderPhotos

Upload Photos

1,842,293 ¡fotos cargadas!

WunderBlogs® & News

Nearby

Calidad del aire

  Calidad del aire Índice AQ Contaminante
Not available.

Grosos de nieve

Estación Profundido Altura

Actividad de terremotos

Ciudad Distance Mag. Tiempo y dato
Magnitud mínima muestra es 2,5.

Temperaturas de aguas costeras

Lugar Temperatura

Stations

Estaciones meteorológicas cercanas

Ubicación de la estación Temp. Vientos helados Punto de rocío Humedad Viento Precip. Alt Actualizado Tipo